Погода Жанаталапна неделю

Алматинская область, Казахстан

25 - 31 июля
  • 25июля
    Сегодня
    +25°
    +38°
    Облачно с прояснениями
    ВремяПогодаТемператураВлажностьДавлениеВетер, м/сВероятность осадков
    02:00Ясно и безоблачно+25°C57 %714 мм2.5 м/с2 %
    05:00Ясно и безоблачно+23°C63 %715 мм1.4 м/с2 %
    08:00Ясно и безоблачно+30°C40 %716 мм1.2 м/с2 %
    11:00Ясно и безоблачно+35°C26 %716 мм2.7 м/с2 %
    14:00Облачно с прояснениями+38°C21 %715 мм3.6 м/с2 %
    17:00Практически безоблачно+37°C20 %715 мм4.4 м/с2 %
    20:00Ясно и безоблачно+32°C29 %716 мм5.5 м/с2 %
    23:00Ясно и безоблачно+29°C34 %715 мм5.5 м/с2 %
  • 26июля
    Пятница
    +24°
    +40°
    Ясно и безоблачно
    ВремяПогодаТемператураВлажностьДавлениеВетер, м/сВероятность осадков
    02:00Ясно и безоблачно+28°C42 %715 мм3.1 м/с2 %
    05:00Ясно и безоблачно+25°C53 %715 мм2.7 м/с2 %
    08:00Ясно и безоблачно+32°C36 %717 мм1.5 м/с2 %
    11:00Ясно и безоблачно+37°C23 %716 мм1.1 м/с2 %
    14:00Ясно и безоблачно+39°C19 %716 мм1.8 м/с2 %
    17:00Практически безоблачно+39°C17 %716 мм1.9 м/с2 %
    20:00Ясно и безоблачно+32°C31 %716 мм2.0 м/с2 %
    23:00Ясно и безоблачно+30°C32 %717 мм3.0 м/с2 %
  • 27июля
    Суббота
    +25°
    +42°
    Практически безоблачно
    ВремяПогодаТемператураВлажностьДавлениеВетер, м/сВероятность осадков
    02:00Ясно и безоблачно+27°C41 %716 мм2.6 м/с2 %
    05:00Небольшая облачность+25°C40 %716 мм3.2 м/с2 %
    08:00Ясно и безоблачно+34°C29 %718 мм3.0 м/с2 %
    11:00Ясно и безоблачно+36°C25 %719 мм1.7 м/с2 %
    14:00Практически безоблачно+41°C17 %718 мм2.8 м/с2 %
    17:00Практически безоблачно+41°C16 %718 мм4.5 м/с2 %
    20:00Практически безоблачно+34°C23 %718 мм2.6 м/с2 %
    23:00Практически безоблачно+30°C35 %718 мм1.7 м/с2 %
  • 28июля
    Воскресенье
    +25°
    +40°
    Ясно и безоблачно
    ВремяПогодаТемператураВлажностьДавлениеВетер, м/сВероятность осадков
    02:00Ясно и безоблачно+29°C36 %717 мм2.1 м/с2 %
    05:00Ясно и безоблачно+28°C44 %718 мм0.6 м/с2 %
    08:00Ясно и безоблачно+31°C32 %719 мм1.0 м/с2 %
    11:00Практически безоблачно+37°C17 %719 мм1.9 м/с2 %
    14:00Ясно и безоблачно+40°C15 %719 мм2.2 м/с2 %
    17:00Ясно и безоблачно+39°C15 %718 мм2.8 м/с2 %
    20:00Ясно и безоблачно+32°C21 %719 мм3.1 м/с2 %
    23:00Ясно и безоблачно+26°C24 %718 мм2.4 м/с2 %
  • 29июля
    Понедельник
    +27°
    +40°
    Ясно и безоблачно
    ВремяПогодаТемператураВлажностьДавлениеВетер, м/сВероятность осадков
    02:00Ясно и безоблачно+27°C27 %718 мм2.2 м/с2 %
    05:00Ясно и безоблачно+27°C32 %719 мм2.7 м/с4 %
    08:00Практически безоблачно+32°C29 %720 мм2.9 м/с9 %
    11:00Ясно и безоблачно+37°C17 %719 мм3.7 м/с2 %
    14:00Ясно и безоблачно+40°C16 %718 мм2.8 м/с2 %
    17:00Ясно и безоблачно+39°C17 %717 мм2.6 м/с2 %
    20:00Ясно и безоблачно+33°C20 %717 мм5.3 м/с2 %
    23:00Ясно и безоблачно+29°C23 %717 мм4.1 м/с6 %
Мы используем cookies
Соглашаюсь